createdAt,value
2018-06-24T00:00:02.391Z,73.12
2018-06-24T00:02:32.558Z,73.52
2018-06-24T00:05:02.667Z,73.81
2018-06-24T00:07:32.944Z,74.07
2018-06-24T00:10:03.042Z,74.12
2018-06-24T00:12:33.160Z,74.07
2018-06-24T00:15:03.289Z,73.87
2018-06-24T00:17:33.457Z,74.20
2018-06-24T00:20:03.598Z,74.33
2018-06-24T00:22:33.246Z,74.71
2018-06-24T00:25:03.343Z,74.62
2018-06-24T00:27:33.551Z,74.71
2018-06-24T00:30:03.683Z,74.92
2018-06-24T00:32:33.762Z,75.11
2018-06-24T00:35:03.894Z,75.16
2018-06-24T00:37:33.953Z,75.27
2018-06-24T00:40:03.721Z,75.31
2018-06-24T00:42:33.886Z,75.51
2018-06-24T00:45:04.045Z,75.40
2018-06-24T00:47:34.100Z,75.48
2018-06-24T00:50:04.246Z,75.76
2018-06-24T00:52:34.332Z,75.74
2018-06-24T00:55:04.415Z,75.82
2018-06-24T00:57:34.454Z,75.97
2018-06-24T01:00:17.695Z,76.02
2018-06-24T01:02:47.738Z,76.19
2018-06-24T01:05:17.830Z,76.11
2018-06-24T01:07:47.886Z,76.56
2018-06-24T01:10:18.009Z,76.52
2018-06-24T01:12:48.087Z,76.82
2018-06-24T01:15:18.207Z,77.03
2018-06-24T01:17:48.272Z,76.89
2018-06-24T01:20:18.336Z,77.35
2018-06-24T01:22:48.417Z,77.19
2018-06-24T01:25:18.571Z,77.15
2018-06-24T01:27:48.213Z,77.02
2018-06-24T01:30:18.292Z,77.21
2018-06-24T01:32:48.345Z,77.43
2018-06-24T01:35:18.446Z,77.29
2018-06-24T01:37:48.521Z,77.19
2018-06-24T01:40:18.594Z,76.92
2018-06-24T01:42:48.681Z,76.83
2018-06-24T01:45:18.758Z,76.79
2018-06-24T01:47:48.881Z,77.09
2018-06-24T01:50:18.970Z,77.04
2018-06-24T01:52:49.023Z,77.07
2018-06-24T01:55:19.166Z,77.38
2018-06-24T01:57:49.203Z,77.25
2018-06-24T02:00:19.258Z,77.72
2018-06-24T02:02:49.299Z,77.85
2018-06-24T02:05:19.001Z,78.10
2018-06-24T02:07:49.154Z,78.13
2018-06-24T02:10:19.240Z,77.97
2018-06-24T02:12:49.275Z,77.84
2018-06-24T02:15:19.366Z,78.23
2018-06-24T02:17:49.372Z,78.25
2018-06-24T02:20:19.427Z,78.25
2018-06-24T02:22:49.476Z,78.15
2018-06-24T02:25:19.558Z,78.55
2018-06-24T02:27:49.573Z,78.37
2018-06-24T02:30:19.659Z,78.55
2018-06-24T02:32:49.677Z,78.31
2018-06-24T02:35:19.758Z,78.96
2018-06-24T02:37:49.807Z,78.72
2018-06-24T02:40:19.924Z,79.04
2018-06-24T02:42:49.986Z,79.21
2018-06-24T02:45:20.063Z,79.27
2018-06-24T02:47:49.712Z,79.59
2018-06-24T02:50:19.802Z,79.51
2018-06-24T02:52:49.840Z,80.25
2018-06-24T02:55:19.935Z,80.07
2018-06-24T02:57:49.977Z,80.64
2018-06-24T03:00:20.194Z,81.02
2018-06-24T03:02:50.207Z,81.02
2018-06-24T03:05:20.319Z,80.83
2018-06-24T03:07:50.055Z,81.21
2018-06-24T03:10:20.109Z,81.46
2018-06-24T03:12:50.486Z,81.23
2018-06-24T03:15:20.105Z,81.49
2018-06-24T03:17:49.772Z,82.06
2018-06-24T03:20:19.838Z,82.13
2018-06-24T03:22:49.596Z,82.60
2018-06-24T03:25:19.651Z,83.05
2018-06-24T03:27:49.705Z,83.10
2018-06-24T03:30:19.789Z,83.26
2018-06-24T03:32:49.849Z,82.68
2018-06-24T03:35:19.908Z,81.89
2018-06-24T03:37:49.936Z,81.58
2018-06-24T03:40:20.015Z,81.62
2018-06-24T03:42:50.069Z,81.59
2018-06-24T03:45:20.148Z,81.75
2018-06-24T03:47:49.949Z,81.94
2018-06-24T03:50:20.000Z,82.01
2018-06-24T03:52:50.141Z,82.25
2018-06-24T03:55:20.174Z,82.38
2018-06-24T03:57:50.270Z,82.37
2018-06-24T04:00:20.361Z,82.80
2018-06-24T04:02:50.438Z,82.99
2018-06-24T04:05:20.542Z,83.08
2018-06-24T04:07:50.615Z,83.29
2018-06-24T04:10:20.686Z,83.47
2018-06-24T04:12:50.783Z,83.94
2018-06-24T04:15:20.901Z,84.00
2018-06-24T04:17:51.043Z,84.64
2018-06-24T04:20:21.074Z,84.59
2018-06-24T04:22:51.167Z,84.18
2018-06-24T04:25:20.803Z,84.26
2018-06-24T04:27:50.891Z,84.32
2018-06-24T04:30:20.949Z,83.91
2018-06-24T04:32:51.049Z,83.89
2018-06-24T04:35:21.120Z,83.70
2018-06-24T04:37:51.210Z,83.84
2018-06-24T04:40:21.262Z,83.94
2018-06-24T04:42:51.354Z,84.34
2018-06-24T04:45:21.370Z,84.21
2018-06-24T04:47:51.477Z,84.17
2018-06-24T04:50:21.093Z,84.17
2018-06-24T04:52:51.275Z,84.24
2018-06-24T04:55:21.491Z,84.14
2018-06-24T04:57:51.589Z,84.06
2018-06-24T05:00:21.651Z,83.78
2018-06-24T05:02:52.046Z,83.30
2018-06-24T05:05:22.137Z,83.01
2018-06-24T05:07:52.013Z,82.43
2018-06-24T05:10:22.096Z,82.00
2018-06-24T05:12:52.159Z,81.87
2018-06-24T05:15:22.221Z,81.06
2018-06-24T05:17:52.327Z,80.69
2018-06-24T05:20:22.394Z,80.38
2018-06-24T05:22:52.558Z,80.11
2018-06-24T05:25:22.643Z,80.19
2018-06-24T05:27:52.841Z,79.20
2018-06-24T05:30:22.478Z,78.49
2018-06-24T05:32:52.555Z,77.49
2018-06-24T05:35:22.655Z,77.36
2018-06-24T05:37:52.872Z,76.61
2018-06-24T05:40:22.465Z,76.83
2018-06-24T05:42:52.608Z,74.66
2018-06-24T05:45:22.742Z,75.08
2018-06-24T05:47:52.961Z,74.21
2018-06-24T05:50:23.028Z,73.12
2018-06-24T05:52:53.060Z,73.46
2018-06-24T05:55:23.180Z,74.18
2018-06-24T05:57:53.293Z,73.73
2018-06-24T06:00:22.929Z,73.92
2018-06-24T06:02:53.021Z,72.36
2018-06-24T06:05:23.169Z,71.24
2018-06-24T06:07:53.395Z,70.05
2018-06-24T06:10:23.545Z,70.21
2018-06-24T06:12:53.601Z,70.72
2018-06-24T06:15:23.717Z,69.44
2018-06-24T06:17:53.765Z,68.22
2018-06-24T06:20:23.469Z,69.69
2018-06-24T06:22:53.110Z,68.61
2018-06-24T06:25:23.181Z,68.54
2018-06-24T06:27:53.269Z,67.55
2018-06-24T06:30:23.440Z,67.33
2018-06-24T06:32:53.486Z,65.41
2018-06-24T06:35:23.549Z,65.12
2018-06-24T06:37:53.599Z,66.59
2018-06-24T06:40:23.702Z,62.51
2018-06-24T06:42:53.784Z,63.11
2018-06-24T06:45:24.154Z,63.10
2018-06-24T06:47:53.716Z,62.89
2018-06-24T06:50:23.795Z,63.11
2018-06-24T06:52:53.919Z,63.88
2018-06-24T06:55:24.004Z,62.95
2018-06-24T06:57:54.097Z,65.45
2018-06-24T07:00:24.199Z,62.00
2018-06-24T07:02:54.245Z,60.85
2018-06-24T07:05:24.387Z,61.38
2018-06-24T07:07:54.692Z,61.33
2018-06-24T07:10:24.775Z,56.95
2018-06-24T07:12:55.253Z,58.48
2018-06-24T07:15:25.336Z,57.51
2018-06-24T07:17:55.374Z,54.81
2018-06-24T07:20:25.494Z,55.89
2018-06-24T07:22:55.160Z,58.46
2018-06-24T07:25:25.277Z,60.10
2018-06-24T07:27:56.162Z,58.86
2018-06-24T07:30:26.321Z,58.07
2018-06-24T07:32:58.869Z,55.44
2018-06-24T07:35:29.142Z,54.48
2018-06-24T07:37:59.524Z,59.07
2018-06-24T07:40:29.734Z,59.20
2018-06-24T07:42:59.982Z,59.89
2018-06-24T07:45:30.142Z,57.59
2018-06-24T07:48:00.242Z,60.93
2018-06-24T07:50:30.367Z,60.38
2018-06-24T07:53:00.623Z,58.34
2018-06-24T07:55:32.717Z,57.29
2018-06-24T07:58:02.802Z,59.42
2018-06-24T08:00:32.908Z,59.09
2018-06-24T08:03:02.982Z,52.58
2018-06-24T08:05:33.100Z,55.60
2018-06-24T08:08:03.265Z,56.14
2018-06-24T08:10:33.374Z,57.55
2018-06-24T08:13:03.675Z,55.67
2018-06-24T08:15:33.807Z,54.94
2018-06-24T08:18:03.935Z,55.68
2018-06-24T08:20:34.051Z,56.47
2018-06-24T08:23:04.157Z,55.98
2018-06-24T08:25:34.337Z,58.52
2018-06-24T08:28:04.412Z,53.03
2018-06-24T08:30:34.514Z,50.44
2018-06-24T08:33:04.579Z,54.52
2018-06-24T08:35:34.689Z,56.66
2018-06-24T08:38:05.051Z,54.73
2018-06-24T08:40:35.255Z,53.01
2018-06-24T08:43:05.339Z,53.17
2018-06-24T08:45:35.469Z,53.73
2018-06-24T08:48:06.841Z,55.41
2018-06-24T08:50:36.983Z,54.81
2018-06-24T08:53:07.080Z,55.02
2018-06-24T08:55:37.209Z,54.53
2018-06-24T08:58:07.839Z,51.73
2018-06-24T09:00:37.987Z,54.16
2018-06-24T09:03:08.144Z,52.68
2018-06-24T09:05:38.247Z,54.98
2018-06-24T09:08:08.560Z,56.12
2018-06-24T09:10:38.646Z,54.52
2018-06-24T09:13:08.768Z,57.04
2018-06-24T09:15:38.940Z,54.70
2018-06-24T09:18:09.143Z,52.30
2018-06-24T09:20:39.219Z,53.88
2018-06-24T09:23:09.392Z,56.04
2018-06-24T09:25:39.455Z,56.45
2018-06-24T09:28:09.532Z,52.57
2018-06-24T09:30:39.629Z,52.98
2018-06-24T09:33:09.753Z,50.80
2018-06-24T09:35:39.831Z,50.68
2018-06-24T09:38:09.690Z,53.30
2018-06-24T09:40:39.817Z,51.36
2018-06-24T09:43:09.973Z,54.25
2018-06-24T09:45:40.094Z,53.52
2018-06-24T09:48:10.337Z,54.52
2018-06-24T09:50:40.409Z,56.31
2018-06-24T09:53:10.536Z,50.82
2018-06-24T09:55:40.963Z,51.72
2018-06-24T09:58:11.188Z,51.03
2018-06-24T10:00:41.544Z,53.16
2018-06-24T10:03:11.830Z,53.00
2018-06-24T10:05:41.994Z,50.72
2018-06-24T10:08:12.103Z,49.57
2018-06-24T10:10:42.243Z,52.97
2018-06-24T10:13:12.411Z,50.57
2018-06-24T10:15:42.543Z,54.29
2018-06-24T10:18:12.710Z,49.03
2018-06-24T10:20:42.809Z,48.96
2018-06-24T10:23:12.924Z,48.84
2018-06-24T10:25:43.099Z,47.30
2018-06-24T10:28:13.208Z,49.51
2018-06-24T10:30:43.284Z,47.46
2018-06-24T10:33:13.382Z,49.07
2018-06-24T10:35:43.467Z,48.40
2018-06-24T10:38:13.575Z,49.36
2018-06-24T10:40:43.653Z,48.05
2018-06-24T10:43:13.772Z,47.07
2018-06-24T10:45:43.878Z,46.63
2018-06-24T10:48:13.572Z,45.14
2018-06-24T10:50:44.029Z,46.75
2018-06-24T10:53:14.164Z,48.03
2018-06-24T10:55:44.497Z,49.09
2018-06-24T10:58:15.098Z,49.28
2018-06-24T11:00:45.286Z,47.79
2018-06-24T11:03:15.539Z,51.00
2018-06-24T11:05:45.974Z,49.48
2018-06-24T11:08:16.290Z,48.83
2018-06-24T11:10:46.356Z,52.24
2018-06-24T11:13:16.496Z,47.83
2018-06-24T11:15:46.608Z,46.30
2018-06-24T11:18:16.718Z,52.71
2018-06-24T11:20:46.996Z,46.19
2018-06-24T11:23:17.246Z,47.94
2018-06-24T11:25:47.329Z,46.48
2018-06-24T11:28:17.408Z,49.32
2018-06-24T11:30:47.543Z,50.95
2018-06-24T11:33:17.687Z,45.42
2018-06-24T11:35:47.795Z,48.97
2018-06-24T11:38:18.162Z,48.30
2018-06-24T11:40:48.446Z,43.25
2018-06-24T11:43:18.527Z,43.19
2018-06-24T11:45:48.639Z,43.91
2018-06-24T11:48:18.752Z,44.90
2018-06-24T11:50:49.155Z,44.71
2018-06-24T11:53:24.826Z,46.46
2018-06-24T11:55:55.267Z,48.12
2018-06-24T11:58:25.413Z,43.59
2018-06-24T12:00:55.529Z,46.19
2018-06-24T12:03:25.626Z,44.41
2018-06-24T12:05:55.736Z,42.22
2018-06-24T12:08:25.797Z,44.07
2018-06-24T12:10:56.018Z,42.63
2018-06-24T12:13:26.049Z,43.81
2018-06-24T12:15:56.107Z,43.64
2018-06-24T12:18:26.162Z,42.50
2018-06-24T12:20:56.230Z,46.21
2018-06-24T12:23:25.917Z,46.75
2018-06-24T12:25:56.096Z,47.16
2018-06-24T12:28:26.148Z,45.51
2018-06-24T12:30:59.856Z,47.06
2018-06-24T12:33:29.908Z,46.62
2018-06-24T12:36:00.041Z,44.78
2018-06-24T12:38:29.744Z,46.11
2018-06-24T12:40:59.906Z,45.08
2018-06-24T12:43:29.993Z,40.56
2018-06-24T12:46:00.069Z,43.25
2018-06-24T12:48:30.073Z,46.37
2018-06-24T12:51:00.322Z,40.53
2018-06-24T12:53:30.327Z,44.83
2018-06-24T12:56:00.412Z,44.34
2018-06-24T12:58:30.567Z,41.29
2018-06-24T13:01:00.698Z,38.84
2018-06-24T13:03:30.712Z,41.71
2018-06-24T13:06:00.864Z,41.28
2018-06-24T13:08:30.922Z,39.96
2018-06-24T13:11:01.048Z,42.86
2018-06-24T13:13:31.129Z,42.76
2018-06-24T13:16:01.261Z,39.93
2018-06-24T13:18:31.336Z,41.76
2018-06-24T13:21:01.766Z,40.25
2018-06-24T13:23:32.149Z,37.92
2018-06-24T13:26:02.466Z,40.18
2018-06-24T13:28:32.635Z,40.40
2018-06-24T13:31:03.280Z,45.33
2018-06-24T13:33:33.350Z,43.69
2018-06-24T13:36:03.627Z,40.84
2018-06-24T13:38:33.973Z,42.00
2018-06-24T13:41:04.167Z,43.72
2018-06-24T13:43:34.295Z,47.95
2018-06-24T13:46:04.416Z,44.55
2018-06-24T13:48:34.561Z,44.69
2018-06-24T13:51:05.286Z,44.88
2018-06-24T13:53:35.410Z,44.45
2018-06-24T13:56:05.883Z,42.40
2018-06-24T13:58:36.000Z,42.19
2018-06-24T14:01:06.168Z,44.42
2018-06-24T14:03:36.878Z,45.43
2018-06-24T14:06:07.171Z,41.05
2018-06-24T14:08:37.253Z,42.93
2018-06-24T14:11:06.997Z,43.72
2018-06-24T14:13:37.132Z,42.89
2018-06-24T14:16:07.591Z,43.56
2018-06-24T14:18:37.779Z,41.18
2018-06-24T14:21:07.866Z,41.23
2018-06-24T14:23:37.517Z,40.69
2018-06-24T14:26:07.681Z,41.34
2018-06-24T14:28:37.808Z,45.03
2018-06-24T14:31:08.444Z,43.57
2018-06-24T14:33:38.804Z,42.25
2018-06-24T14:36:08.978Z,42.75
2018-06-24T14:38:39.078Z,44.15
2018-06-24T14:41:09.265Z,42.47
2018-06-24T14:43:40.221Z,42.75
2018-06-24T14:46:10.349Z,43.00
2018-06-24T14:48:40.404Z,44.68
2018-06-24T14:51:10.509Z,40.67
2018-06-24T14:53:40.678Z,43.25
2018-06-24T14:56:10.861Z,43.75
2018-06-24T14:58:40.951Z,43.25
2018-06-24T15:01:11.087Z,42.48
2018-06-24T15:03:41.187Z,43.59
2018-06-24T15:06:11.324Z,41.28
2018-06-24T15:08:41.436Z,41.90
2018-06-24T15:11:11.623Z,42.13
2018-06-24T15:13:41.738Z,44.11
2018-06-24T15:16:11.867Z,42.81
2018-06-24T15:18:41.982Z,44.40
2018-06-24T15:21:12.158Z,41.08
2018-06-24T15:23:42.271Z,44.85
2018-06-24T15:26:12.366Z,42.80
2018-06-24T15:28:43.186Z,44.68
2018-06-24T15:31:13.611Z,42.00
2018-06-24T15:33:43.727Z,45.22
2018-06-24T15:36:13.969Z,43.18
2018-06-24T15:38:44.232Z,40.75
2018-06-24T15:41:14.483Z,43.34
2018-06-24T15:43:44.688Z,44.43
2018-06-24T15:46:18.924Z,43.40
2018-06-24T15:48:49.141Z,44.77
2018-06-24T15:51:20.225Z,44.49
2018-06-24T15:53:50.373Z,44.01
2018-06-24T15:56:20.450Z,44.09
2018-06-24T15:58:50.552Z,44.90
2018-06-24T16:01:21.310Z,44.15
2018-06-24T16:03:52.005Z,46.15
2018-06-24T16:06:23.072Z,44.24
2018-06-24T16:08:53.219Z,45.23
2018-06-24T16:11:23.290Z,42.87
2018-06-24T16:13:53.456Z,42.35
2018-06-24T16:16:23.952Z,43.21
2018-06-24T16:18:54.108Z,45.39
2018-06-24T16:21:24.178Z,42.93
2018-06-24T16:23:54.257Z,44.28
2018-06-24T16:26:24.316Z,42.85
2018-06-24T16:28:54.463Z,42.89
2018-06-24T16:31:24.539Z,44.23
2018-06-24T16:33:54.596Z,43.51
2018-06-24T16:36:24.726Z,45.41
2018-06-24T16:38:54.857Z,44.49
2018-06-24T16:41:25.010Z,44.99
2018-06-24T16:43:55.114Z,45.26
2018-06-24T16:46:25.178Z,44.56
2018-06-24T16:48:55.307Z,45.85
2018-06-24T16:51:25.448Z,45.85
2018-06-24T16:53:55.547Z,45.58
2018-06-24T16:56:25.649Z,46.15
2018-06-24T16:58:55.836Z,46.75
2018-06-24T17:01:26.718Z,47.41
2018-06-24T17:04:02.102Z,46.68
2018-06-24T17:06:33.049Z,46.30
2018-06-24T17:09:07.966Z,46.06
2018-06-24T17:11:43.155Z,46.35
2018-06-24T17:14:15.650Z,48.76
2018-06-24T17:16:45.740Z,48.54
2018-06-24T17:19:15.832Z,47.51
2018-06-24T17:21:45.862Z,48.84
2018-06-24T17:24:15.990Z,48.10
2018-06-24T17:26:46.082Z,48.79
2018-06-24T17:29:15.784Z,48.56
2018-06-24T17:31:45.919Z,48.95
2018-06-24T17:34:18.171Z,48.12
2018-06-24T17:36:48.522Z,48.46
2018-06-24T17:39:18.652Z,47.96
2018-06-24T17:41:48.682Z,49.13
2018-06-24T17:44:18.886Z,49.70
2018-06-24T17:46:49.442Z,49.72
2018-06-24T17:49:19.575Z,50.17
2018-06-24T17:51:49.752Z,49.71
2018-06-24T17:54:20.664Z,50.07
2018-06-24T17:56:51.750Z,50.28
2018-06-24T17:59:21.962Z,50.55
2018-06-24T18:01:52.065Z,49.72
2018-06-24T18:04:21.747Z,50.64
2018-06-24T18:06:51.860Z,50.45
2018-06-24T18:09:21.938Z,50.80
2018-06-24T18:11:52.126Z,50.93
2018-06-24T18:14:22.446Z,50.95
2018-06-24T18:16:52.638Z,51.18
2018-06-24T18:19:22.815Z,51.90
2018-06-24T18:21:52.915Z,52.01
2018-06-24T18:24:23.157Z,52.36
2018-06-24T18:26:53.249Z,52.68
2018-06-24T18:29:23.421Z,52.23
2018-06-24T18:31:53.701Z,52.67
2018-06-24T18:34:23.810Z,52.99
2018-06-24T18:36:53.962Z,52.71
2018-06-24T18:39:24.089Z,54.48
2018-06-24T18:41:54.268Z,52.73
2018-06-24T18:44:24.320Z,53.20
2018-06-24T18:46:54.499Z,52.92
2018-06-24T18:49:24.643Z,53.23
2018-06-24T18:51:54.845Z,53.96
2018-06-24T18:54:25.355Z,54.40
2018-06-24T18:56:55.064Z,54.07
2018-06-24T18:59:25.214Z,53.91
2018-06-24T19:01:55.562Z,54.10
2018-06-24T19:04:25.797Z,53.35
2018-06-24T19:06:56.133Z,54.84
2018-06-24T19:09:26.250Z,54.98
2018-06-24T19:11:56.344Z,54.56
2018-06-24T19:14:27.812Z,54.82
2018-06-24T19:16:57.947Z,54.73
2018-06-24T19:19:28.038Z,54.97
2018-06-24T19:21:58.231Z,55.69
2018-06-24T19:24:28.544Z,55.12
2018-06-24T19:26:58.877Z,55.69
2018-06-24T19:29:29.036Z,56.12
2018-06-24T19:31:59.153Z,55.80
2018-06-24T19:34:28.829Z,55.71
2018-06-24T19:36:59.518Z,56.25
2018-06-24T19:39:29.576Z,55.95
2018-06-24T19:41:59.701Z,56.99
2018-06-24T19:44:29.866Z,56.82
2018-06-24T19:46:59.959Z,58.19
2018-06-24T19:49:30.058Z,57.25
2018-06-24T19:52:00.260Z,56.01
2018-06-24T19:54:30.346Z,56.61
2018-06-24T19:57:00.427Z,56.33
2018-06-24T19:59:30.530Z,56.23
2018-06-24T20:02:00.643Z,56.36
2018-06-24T20:04:30.345Z,57.02
2018-06-24T20:07:00.091Z,56.70
2018-06-24T20:09:30.414Z,57.18
2018-06-24T20:12:00.591Z,56.36
2018-06-24T20:14:30.670Z,56.06
2018-06-24T20:17:00.772Z,57.17
2018-06-24T20:19:30.951Z,56.66
2018-06-24T20:22:02.212Z,57.72
2018-06-24T20:24:33.447Z,57.21
2018-06-24T20:27:03.577Z,56.71
2018-06-24T20:29:33.720Z,56.80
2018-06-24T20:32:03.449Z,57.27
2018-06-24T20:34:33.058Z,56.49
2018-06-24T20:37:03.184Z,57.64
2018-06-24T20:39:33.259Z,56.76
2018-06-24T20:42:03.284Z,57.02
2018-06-24T20:44:33.412Z,56.94
2018-06-24T20:47:03.555Z,57.54
2018-06-24T20:49:33.829Z,57.67
2018-06-24T20:52:03.907Z,58.28
2018-06-24T20:54:34.052Z,57.70
2018-06-24T20:57:04.286Z,57.49
2018-06-24T20:59:34.320Z,57.23
2018-06-24T21:02:04.453Z,58.46
2018-06-24T21:04:34.521Z,57.65
2018-06-24T21:07:04.157Z,57.23
2018-06-24T21:09:33.902Z,57.54
2018-06-24T21:12:03.916Z,57.93
2018-06-24T21:14:34.032Z,57.58
2018-06-24T21:17:04.295Z,58.25
2018-06-24T21:19:34.305Z,58.19
2018-06-24T21:22:04.379Z,58.54
2018-06-24T21:24:41.392Z,58.60
2018-06-24T21:27:12.352Z,57.93
2018-06-24T21:29:42.395Z,58.50
2018-06-24T21:32:12.533Z,57.92
2018-06-24T21:34:42.528Z,58.55
2018-06-24T21:37:12.740Z,58.83
2018-06-24T21:39:42.776Z,58.21
2018-06-24T21:42:12.812Z,58.74
2018-06-24T21:44:42.942Z,59.06
2018-06-24T21:47:13.179Z,58.94
2018-06-24T21:49:43.298Z,59.56
2018-06-24T21:52:13.319Z,59.37
2018-06-24T21:54:43.391Z,59.32
2018-06-24T21:57:13.451Z,59.76
2018-06-24T21:59:44.054Z,60.10
2018-06-24T22:02:14.682Z,59.91
2018-06-24T22:04:44.753Z,60.22
2018-06-24T22:07:14.816Z,60.53
2018-06-24T22:09:44.917Z,60.62
2018-06-24T22:12:14.991Z,60.44
2018-06-24T22:14:45.072Z,60.67
2018-06-24T22:17:15.346Z,61.42
2018-06-24T22:19:45.434Z,60.79
2018-06-24T22:22:15.544Z,61.16
2018-06-24T22:24:45.586Z,61.29
2018-06-24T22:27:15.691Z,61.13
2018-06-24T22:29:45.746Z,60.89
2018-06-24T22:32:15.847Z,61.21
2018-06-24T22:34:45.930Z,60.90
2018-06-24T22:37:15.585Z,61.57
2018-06-24T22:39:45.669Z,61.78
2018-06-24T22:42:15.819Z,61.66
2018-06-24T22:44:45.854Z,61.52
2018-06-24T22:47:15.884Z,62.07
2018-06-24T22:49:45.936Z,62.14
2018-06-24T22:52:16.010Z,62.20
2018-06-24T22:54:46.067Z,61.98
2018-06-24T22:57:16.083Z,62.57
2018-06-24T23:00:17.900Z,62.56
2018-06-24T23:02:47.988Z,62.96
2018-06-24T23:05:18.069Z,63.06
2018-06-24T23:07:48.152Z,63.37
2018-06-24T23:10:18.270Z,62.55
2018-06-24T23:12:48.337Z,62.24
2018-06-24T23:15:18.441Z,62.44
2018-06-24T23:17:48.537Z,62.78
2018-06-24T23:20:18.577Z,62.40
2018-06-24T23:22:48.635Z,62.65
2018-06-24T23:25:18.709Z,62.76
2018-06-24T23:27:48.817Z,63.17
2018-06-24T23:30:18.875Z,63.22
2018-06-24T23:32:48.875Z,63.49
2018-06-24T23:35:18.986Z,63.70
2018-06-24T23:37:49.058Z,63.96
2018-06-24T23:40:19.164Z,64.51
2018-06-24T23:42:49.184Z,64.08
2018-06-24T23:45:19.255Z,64.45
2018-06-24T23:47:49.270Z,64.15
2018-06-24T23:50:19.335Z,64.65
2018-06-24T23:52:49.348Z,65.04
2018-06-24T23:55:19.421Z,64.71
2018-06-24T23:57:49.403Z,64.54
